Airfield :
LOGIN :

Register | Disclaimer

   EN    FR    IT 

 










Legend :    VFR   Marginal VFR   IFR   Intensive IFR   Very Intensive IFR
Visi :
Ceiling :
>= 8 km
>= 3000ft
5 to 8 km
1000 to 3000 ft
1500m to 5 km
500 to 1000 ft
800 to 1500m
200 to 500 ft
< 800m
< 200 ft
Symbols :   Thunderstorms  Fog  Heavy snow  Heavy precipitations  Wind > 20 kt
SIGMETs :     Misc.  Thunderstorms  Icing  Turbulence  Mountain Waves  Volcanic Ashes






- Airport Elevation : 741 ft
- IATA code : PED


LKPD - Pardubice AB

CURRENT METAR :
  • 200816Z 00000KT 5000 2000W BR NSC 10/10 Q1014 RMK YLO

EXPIRED METARs :
  • 200800Z 00000KT 2000 0700W BR BKN003 10/09 Q1014 BECMG 4000 BR
  • 200752Z 00000KT 2000 0700W R27/P2000N R09/1000N BR BKN003 09/09 Q1014 RMK RED
  • 200700Z 14003KT 0500 R27/0800U FG NSC 07/07 Q1013 NOSIG RMK RED RED
  • 200600Z 24002KT 0400 R27/0350N FG VV002 07/07 Q1013 NOSIG RMK RED RED

TAF TAF LKPD
Valid from the 20 at 06:00 until the 21 at 06:00 UTC


200500Z 2006/2106 VRB02KT CAVOK
TEMPO 2006/2009 4000 BR BKN005
PROB40
TEMPO 2006/2008 0600 FG BKN002
TEMPO 2009/2021 13007KT
BECMG 2022/2100 3000 BR
TEMPO 2101/2106 0500 FG VV001



MET'MAP, your aeronautical weather chart ! - Copyright ORBIFLY December 2007 - Disclaimer

ORBIFLY MET'MAP TEAM :

Programming & Development : Alexandra Zaïnal
Concept & Development : Baudouin d'Aumeries
Co-Development & Prog : Marc-Olivier Méhu
Technical & hardware support : Manuel Goepfert

Contact : metmap@orbifly.com




SOURCES & CREDITS :

   NOAA